sensor_id;sensor_type;location;lat;lon;timestamp;P1;durP1;ratioP1;P2;durP2;ratioP2
3549;SDS011;45572;48.804;8.330;2023-09-18T00:01:25;2.43;;;1.77;;
3549;SDS011;45572;48.804;8.330;2023-09-18T00:03:54;5.50;;;2.40;;
3549;SDS011;45572;48.804;8.330;2023-09-18T00:06:22;2.30;;;1.70;;
3549;SDS011;45572;48.804;8.330;2023-09-18T00:08:51;3.43;;;1.70;;
3549;SDS011;45572;48.804;8.330;2023-09-18T00:11:21;11.37;;;2.67;;
3549;SDS011;45572;48.804;8.330;2023-09-18T00:13:49;2.93;;;2.20;;
3549;SDS011;45572;48.804;8.330;2023-09-18T00:16:17;3.43;;;1.97;;
3549;SDS011;45572;48.804;8.330;2023-09-18T00:18:45;4.43;;;2.23;;
3549;SDS011;45572;48.804;8.330;2023-09-18T00:21:13;7.40;;;1.80;;
3549;SDS011;45572;48.804;8.330;2023-09-18T00:23:40;6.10;;;1.90;;
3549;SDS011;45572;48.804;8.330;2023-09-18T00:26:08;5.73;;;2.13;;
3549;SDS011;45572;48.804;8.330;2023-09-18T00:28:38;4.20;;;2.13;;
3549;SDS011;45572;48.804;8.330;2023-09-18T00:31:06;7.00;;;2.23;;
3549;SDS011;45572;48.804;8.330;2023-09-18T00:33:34;5.87;;;2.30;;
3549;SDS011;45572;48.804;8.330;2023-09-18T00:36:02;2.83;;;1.80;;
3549;SDS011;45572;48.804;8.330;2023-09-18T00:38:29;6.60;;;2.67;;
3549;SDS011;45572;48.804;8.330;2023-09-18T00:40:57;4.27;;;2.67;;
3549;SDS011;45572;48.804;8.330;2023-09-18T00:43:25;6.03;;;2.10;;
3549;SDS011;45572;48.804;8.330;2023-09-18T00:45:54;6.60;;;2.33;;
3549;SDS011;45572;48.804;8.330;2023-09-18T00:48:22;7.67;;;2.67;;
3549;SDS011;45572;48.804;8.330;2023-09-18T00:50:50;5.37;;;1.70;;
3549;SDS011;45572;48.804;8.330;2023-09-18T00:53:19;5.23;;;2.50;;
3549;SDS011;45572;48.804;8.330;2023-09-18T00:55:49;10.00;;;2.30;;
3549;SDS011;45572;48.804;8.330;2023-09-18T00:58:19;5.60;;;2.43;;
3549;SDS011;45572;48.804;8.330;2023-09-18T01:00:48;2.63;;;1.80;;
3549;SDS011;45572;48.804;8.330;2023-09-18T01:03:19;9.40;;;2.60;;
3549;SDS011;45572;48.804;8.330;2023-09-18T01:05:48;5.53;;;2.70;;
3549;SDS011;45572;48.804;8.330;2023-09-18T01:08:16;4.73;;;2.00;;
3549;SDS011;45572;48.804;8.330;2023-09-18T01:10:46;2.70;;;1.70;;
3549;SDS011;45572;48.804;8.330;2023-09-18T01:13:21;6.60;;;2.17;;
3549;SDS011;45572;48.804;8.330;2023-09-18T01:15:57;4.20;;;2.30;;
3549;SDS011;45572;48.804;8.330;2023-09-18T01:18:31;4.53;;;1.80;;
3549;SDS011;45572;48.804;8.330;2023-09-18T01:20:59;5.83;;;1.80;;
3549;SDS011;45572;48.804;8.330;2023-09-18T01:23:28;3.80;;;1.80;;
3549;SDS011;45572;48.804;8.330;2023-09-18T01:25:56;4.00;;;1.80;;
3549;SDS011;45572;48.804;8.330;2023-09-18T01:28:24;3.10;;;1.80;;
3549;SDS011;45572;48.804;8.330;2023-09-18T01:30:51;4.90;;;2.03;;
3549;SDS011;45572;48.804;8.330;2023-09-18T01:33:19;4.83;;;1.90;;
3549;SDS011;45572;48.804;8.330;2023-09-18T01:35:48;14.27;;;2.73;;
3549;SDS011;45572;48.804;8.330;2023-09-18T01:38:20;3.70;;;2.50;;
3549;SDS011;45572;48.804;8.330;2023-09-18T01:40:51;8.20;;;2.17;;
3549;SDS011;45572;48.804;8.330;2023-09-18T01:43:21;3.27;;;2.43;;
3549;SDS011;45572;48.804;8.330;2023-09-18T01:45:48;7.37;;;2.47;;
3549;SDS011;45572;48.804;8.330;2023-09-18T01:48:17;6.07;;;2.90;;
3549;SDS011;45572;48.804;8.330;2023-09-18T01:50:45;5.43;;;3.10;;
3549;SDS011;45572;48.804;8.330;2023-09-18T01:53:12;5.47;;;2.20;;
3549;SDS011;45572;48.804;8.330;2023-09-18T01:55:40;5.47;;;2.43;;
3549;SDS011;45572;48.804;8.330;2023-09-18T01:58:10;8.40;;;2.50;;
3549;SDS011;45572;48.804;8.330;2023-09-18T02:00:41;6.80;;;2.70;;
3549;SDS011;45572;48.804;8.330;2023-09-18T02:03:09;9.17;;;3.20;;
3549;SDS011;45572;48.804;8.330;2023-09-18T02:05:57;6.13;;;2.30;;
3549;SDS011;45572;48.804;8.330;2023-09-18T02:08:25;7.87;;;3.80;;
3549;SDS011;45572;48.804;8.330;2023-09-18T02:10:54;3.63;;;2.80;;
3549;SDS011;45572;48.804;8.330;2023-09-18T02:13:25;6.90;;;3.50;;
3549;SDS011;45572;48.804;8.330;2023-09-18T02:15:53;7.00;;;3.20;;
3549;SDS011;45572;48.804;8.330;2023-09-18T02:18:21;5.23;;;2.67;;
3549;SDS011;45572;48.804;8.330;2023-09-18T02:20:48;11.73;;;3.90;;
3549;SDS011;45572;48.804;8.330;2023-09-18T02:23:16;7.77;;;3.20;;
3549;SDS011;45572;48.804;8.330;2023-09-18T02:25:44;4.90;;;2.83;;
3549;SDS011;45572;48.804;8.330;2023-09-18T02:28:13;7.27;;;4.03;;
3549;SDS011;45572;48.804;8.330;2023-09-18T02:30:43;5.57;;;3.30;;
3549;SDS011;45572;48.804;8.330;2023-09-18T02:33:12;9.00;;;2.63;;
3549;SDS011;45572;48.804;8.330;2023-09-18T02:35:40;8.63;;;3.57;;
3549;SDS011;45572;48.804;8.330;2023-09-18T02:38:10;6.73;;;3.10;;
3549;SDS011;45572;48.804;8.330;2023-09-18T02:40:38;5.80;;;3.03;;
3549;SDS011;45572;48.804;8.330;2023-09-18T02:43:06;4.63;;;2.43;;
3549;SDS011;45572;48.804;8.330;2023-09-18T02:45:34;4.97;;;3.10;;
3549;SDS011;45572;48.804;8.330;2023-09-18T02:48:03;6.27;;;3.60;;
3549;SDS011;45572;48.804;8.330;2023-09-18T02:50:31;3.23;;;2.90;;
3549;SDS011;45572;48.804;8.330;2023-09-18T02:52:59;6.03;;;3.13;;
3549;SDS011;45572;48.804;8.330;2023-09-18T02:55:27;6.20;;;3.07;;
3549;SDS011;45572;48.804;8.330;2023-09-18T02:57:56;5.67;;;3.53;;
3549;SDS011;45572;48.804;8.330;2023-09-18T03:00:23;8.50;;;3.40;;
3549;SDS011;45572;48.804;8.330;2023-09-18T03:03:10;6.90;;;3.07;;
3549;SDS011;45572;48.804;8.330;2023-09-18T03:05:39;8.60;;;3.70;;
3549;SDS011;45572;48.804;8.330;2023-09-18T03:08:08;7.70;;;4.23;;
3549;SDS011;45572;48.804;8.330;2023-09-18T03:10:40;5.77;;;3.97;;
3549;SDS011;45572;48.804;8.330;2023-09-18T03:13:09;12.00;;;3.70;;
3549;SDS011;45572;48.804;8.330;2023-09-18T03:15:38;13.67;;;3.43;;
3549;SDS011;45572;48.804;8.330;2023-09-18T03:18:06;8.20;;;4.10;;
3549;SDS011;45572;48.804;8.330;2023-09-18T03:20:36;6.60;;;3.70;;
3549;SDS011;45572;48.804;8.330;2023-09-18T03:23:04;6.50;;;4.00;;
3549;SDS011;45572;48.804;8.330;2023-09-18T03:25:32;7.87;;;4.00;;
3549;SDS011;45572;48.804;8.330;2023-09-18T03:28:18;21.33;;;5.00;;
3549;SDS011;45572;48.804;8.330;2023-09-18T03:30:49;6.40;;;3.67;;
3549;SDS011;45572;48.804;8.330;2023-09-18T03:33:20;8.77;;;4.00;;
3549;SDS011;45572;48.804;8.330;2023-09-18T03:35:49;14.40;;;4.37;;
3549;SDS011;45572;48.804;8.330;2023-09-18T03:38:22;13.07;;;3.93;;
3549;SDS011;45572;48.804;8.330;2023-09-18T03:40:51;9.40;;;4.03;;
3549;SDS011;45572;48.804;8.330;2023-09-18T03:43:19;10.77;;;3.83;;
3549;SDS011;45572;48.804;8.330;2023-09-18T03:45:48;10.73;;;4.37;;
3549;SDS011;45572;48.804;8.330;2023-09-18T03:48:17;13.00;;;4.30;;
3549;SDS011;45572;48.804;8.330;2023-09-18T03:50:46;7.40;;;4.03;;
3549;SDS011;45572;48.804;8.330;2023-09-18T03:53:16;18.83;;;4.67;;
3549;SDS011;45572;48.804;8.330;2023-09-18T03:55:44;12.77;;;5.23;;
3549;SDS011;45572;48.804;8.330;2023-09-18T03:58:12;15.47;;;4.67;;
3549;SDS011;45572;48.804;8.330;2023-09-18T04:00:39;8.70;;;4.87;;
3549;SDS011;45572;48.804;8.330;2023-09-18T04:03:08;21.13;;;5.03;;
3549;SDS011;45572;48.804;8.330;2023-09-18T04:05:36;14.63;;;4.80;;
3549;SDS011;45572;48.804;8.330;2023-09-18T04:08:06;14.17;;;5.70;;
3549;SDS011;45572;48.804;8.330;2023-09-18T04:10:33;13.90;;;5.00;;
3549;SDS011;45572;48.804;8.330;2023-09-18T04:13:02;10.53;;;4.57;;
3549;SDS011;45572;48.804;8.330;2023-09-18T04:15:30;10.50;;;3.73;;
3549;SDS011;45572;48.804;8.330;2023-09-18T04:17:58;8.33;;;4.50;;
3549;SDS011;45572;48.804;8.330;2023-09-18T04:20:27;9.47;;;4.03;;
3549;SDS011;45572;48.804;8.330;2023-09-18T04:25:50;11.00;;;4.37;;
3549;SDS011;45572;48.804;8.330;2023-09-18T04:28:19;10.63;;;4.07;;
3549;SDS011;45572;48.804;8.330;2023-09-18T04:30:48;9.80;;;3.30;;
3549;SDS011;45572;48.804;8.330;2023-09-18T04:33:18;12.37;;;4.77;;
3549;SDS011;45572;48.804;8.330;2023-09-18T04:35:48;10.87;;;3.83;;
3549;SDS011;45572;48.804;8.330;2023-09-18T04:38:16;9.53;;;3.23;;
3549;SDS011;45572;48.804;8.330;2023-09-18T04:40:47;18.13;;;3.50;;
3549;SDS011;45572;48.804;8.330;2023-09-18T04:43:15;10.40;;;3.80;;
3549;SDS011;45572;48.804;8.330;2023-09-18T04:45:44;7.13;;;3.43;;
3549;SDS011;45572;48.804;8.330;2023-09-18T04:48:13;10.87;;;4.10;;
3549;SDS011;45572;48.804;8.330;2023-09-18T04:50:42;7.20;;;3.53;;
3549;SDS011;45572;48.804;8.330;2023-09-18T04:53:10;9.00;;;4.63;;
3549;SDS011;45572;48.804;8.330;2023-09-18T04:55:38;6.80;;;3.10;;
3549;SDS011;45572;48.804;8.330;2023-09-18T04:58:07;8.17;;;3.20;;
3549;SDS011;45572;48.804;8.330;2023-09-18T05:00:36;9.13;;;3.53;;
3549;SDS011;45572;48.804;8.330;2023-09-18T05:03:04;15.43;;;3.53;;
3549;SDS011;45572;48.804;8.330;2023-09-18T05:05:32;7.00;;;2.60;;
3549;SDS011;45572;48.804;8.330;2023-09-18T05:08:01;5.47;;;2.83;;
3549;SDS011;45572;48.804;8.330;2023-09-18T05:10:31;5.33;;;2.80;;
3549;SDS011;45572;48.804;8.330;2023-09-18T05:12:58;7.70;;;3.30;;
3549;SDS011;45572;48.804;8.330;2023-09-18T05:15:29;8.83;;;3.30;;
3549;SDS011;45572;48.804;8.330;2023-09-18T05:17:57;8.80;;;2.90;;
3549;SDS011;45572;48.804;8.330;2023-09-18T05:20:27;9.30;;;2.97;;
3549;SDS011;45572;48.804;8.330;2023-09-18T05:22:56;4.37;;;3.33;;
3549;SDS011;45572;48.804;8.330;2023-09-18T05:25:26;8.83;;;2.50;;
3549;SDS011;45572;48.804;8.330;2023-09-18T05:27:58;14.13;;;3.10;;
3549;SDS011;45572;48.804;8.330;2023-09-18T05:30:29;9.33;;;3.00;;
3549;SDS011;45572;48.804;8.330;2023-09-18T05:33:00;3.57;;;2.40;;
3549;SDS011;45572;48.804;8.330;2023-09-18T05:35:31;8.10;;;3.50;;
3549;SDS011;45572;48.804;8.330;2023-09-18T05:37:59;9.53;;;2.80;;
3549;SDS011;45572;48.804;8.330;2023-09-18T05:40:27;9.37;;;2.50;;
3549;SDS011;45572;48.804;8.330;2023-09-18T05:42:56;7.20;;;2.30;;
3549;SDS011;45572;48.804;8.330;2023-09-18T05:45:24;7.67;;;2.13;;
3549;SDS011;45572;48.804;8.330;2023-09-18T05:47:54;9.90;;;2.60;;
3549;SDS011;45572;48.804;8.330;2023-09-18T05:50:28;5.53;;;2.40;;
3549;SDS011;45572;48.804;8.330;2023-09-18T05:52:57;10.70;;;3.07;;
3549;SDS011;45572;48.804;8.330;2023-09-18T05:55:26;4.30;;;2.47;;
3549;SDS011;45572;48.804;8.330;2023-09-18T05:57:54;5.87;;;2.97;;
3549;SDS011;45572;48.804;8.330;2023-09-18T06:00:23;7.33;;;3.40;;
3549;SDS011;45572;48.804;8.330;2023-09-18T06:02:52;6.37;;;3.60;;
3549;SDS011;45572;48.804;8.330;2023-09-18T06:05:21;8.50;;;2.37;;
3549;SDS011;45572;48.804;8.330;2023-09-18T06:07:51;8.30;;;2.43;;
3549;SDS011;45572;48.804;8.330;2023-09-18T06:10:19;11.83;;;2.30;;
3549;SDS011;45572;48.804;8.330;2023-09-18T06:12:47;5.33;;;2.30;;
3549;SDS011;45572;48.804;8.330;2023-09-18T06:15:15;7.20;;;2.30;;
3549;SDS011;45572;48.804;8.330;2023-09-18T06:17:43;6.07;;;2.30;;
3549;SDS011;45572;48.804;8.330;2023-09-18T06:20:14;5.83;;;3.20;;
3549;SDS011;45572;48.804;8.330;2023-09-18T06:22:43;4.40;;;2.20;;
3549;SDS011;45572;48.804;8.330;2023-09-18T06:25:11;3.90;;;1.53;;
3549;SDS011;45572;48.804;8.330;2023-09-18T06:27:41;6.80;;;3.13;;
3549;SDS011;45572;48.804;8.330;2023-09-18T06:30:09;9.37;;;2.10;;
3549;SDS011;45572;48.804;8.330;2023-09-18T06:32:39;7.00;;;2.20;;
3549;SDS011;45572;48.804;8.330;2023-09-18T06:35:08;2.80;;;1.77;;
3549;SDS011;45572;48.804;8.330;2023-09-18T06:37:36;3.27;;;2.20;;
3549;SDS011;45572;48.804;8.330;2023-09-18T06:40:05;3.50;;;1.60;;
3549;SDS011;45572;48.804;8.330;2023-09-18T06:42:34;6.37;;;2.20;;
3549;SDS011;45572;48.804;8.330;2023-09-18T06:45:02;5.87;;;2.30;;
3549;SDS011;45572;48.804;8.330;2023-09-18T06:47:33;4.33;;;2.00;;
3549;SDS011;45572;48.804;8.330;2023-09-18T06:50:01;4.97;;;2.00;;
3549;SDS011;45572;48.804;8.330;2023-09-18T06:52:30;4.57;;;2.57;;
3549;SDS011;45572;48.804;8.330;2023-09-18T06:54:58;4.57;;;1.93;;
3549;SDS011;45572;48.804;8.330;2023-09-18T06:57:27;6.70;;;2.00;;
3549;SDS011;45572;48.804;8.330;2023-09-18T06:59:55;5.17;;;1.60;;
3549;SDS011;45572;48.804;8.330;2023-09-18T07:02:23;6.53;;;2.17;;
3549;SDS011;45572;48.804;8.330;2023-09-18T07:04:51;6.57;;;3.00;;
3549;SDS011;45572;48.804;8.330;2023-09-18T07:07:19;8.00;;;2.13;;
3549;SDS011;45572;48.804;8.330;2023-09-18T07:09:52;5.93;;;2.03;;
3549;SDS011;45572;48.804;8.330;2023-09-18T07:12:32;4.00;;;2.20;;
3549;SDS011;45572;48.804;8.330;2023-09-18T07:15:00;4.60;;;2.20;;
3549;SDS011;45572;48.804;8.330;2023-09-18T07:17:31;3.37;;;2.17;;
3549;SDS011;45572;48.804;8.330;2023-09-18T07:20:00;3.73;;;1.57;;
3549;SDS011;45572;48.804;8.330;2023-09-18T07:22:34;3.50;;;1.70;;
3549;SDS011;45572;48.804;8.330;2023-09-18T07:25:01;5.50;;;1.90;;
3549;SDS011;45572;48.804;8.330;2023-09-18T07:27:29;7.53;;;1.77;;
3549;SDS011;45572;48.804;8.330;2023-09-18T07:29:59;3.83;;;2.40;;
3549;SDS011;45572;48.804;8.330;2023-09-18T07:32:26;4.03;;;1.80;;
3549;SDS011;45572;48.804;8.330;2023-09-18T07:35:03;2.67;;;1.40;;
3549;SDS011;45572;48.804;8.330;2023-09-18T07:37:33;3.83;;;1.63;;
3549;SDS011;45572;48.804;8.330;2023-09-18T07:40:02;4.10;;;1.50;;
3549;SDS011;45572;48.804;8.330;2023-09-18T07:42:31;4.00;;;1.50;;
3549;SDS011;45572;48.804;8.330;2023-09-18T07:45:00;3.90;;;1.70;;
3549;SDS011;45572;48.804;8.330;2023-09-18T07:47:29;5.97;;;1.67;;
3549;SDS011;45572;48.804;8.330;2023-09-18T07:50:00;4.20;;;2.17;;
3549;SDS011;45572;48.804;8.330;2023-09-18T07:52:28;2.70;;;1.00;;
3549;SDS011;45572;48.804;8.330;2023-09-18T07:54:57;3.10;;;1.23;;
3549;SDS011;45572;48.804;8.330;2023-09-18T07:57:26;3.77;;;2.00;;
3549;SDS011;45572;48.804;8.330;2023-09-18T07:59:56;2.90;;;1.20;;
3549;SDS011;45572;48.804;8.330;2023-09-18T08:02:26;4.03;;;1.50;;
3549;SDS011;45572;48.804;8.330;2023-09-18T08:04:56;4.37;;;1.23;;
3549;SDS011;45572;48.804;8.330;2023-09-18T08:07:24;1.97;;;1.07;;
3549;SDS011;45572;48.804;8.330;2023-09-18T08:09:52;2.90;;;1.40;;
3549;SDS011;45572;48.804;8.330;2023-09-18T08:12:19;7.20;;;2.80;;
3549;SDS011;45572;48.804;8.330;2023-09-18T08:14:47;4.67;;;1.50;;
3549;SDS011;45572;48.804;8.330;2023-09-18T08:17:16;3.10;;;1.23;;
3549;SDS011;45572;48.804;8.330;2023-09-18T08:19:45;4.50;;;2.27;;
3549;SDS011;45572;48.804;8.330;2023-09-18T08:22:17;3.83;;;1.37;;
3549;SDS011;45572;48.804;8.330;2023-09-18T08:24:45;3.43;;;1.40;;
3549;SDS011;45572;48.804;8.330;2023-09-18T08:27:13;2.63;;;1.20;;
3549;SDS011;45572;48.804;8.330;2023-09-18T08:29:42;15.33;;;1.57;;
3549;SDS011;45572;48.804;8.330;2023-09-18T08:32:11;2.80;;;1.30;;
3549;SDS011;45572;48.804;8.330;2023-09-18T08:34:39;1.77;;;1.07;;
3549;SDS011;45572;48.804;8.330;2023-09-18T08:37:08;3.07;;;1.57;;
3549;SDS011;45572;48.804;8.330;2023-09-18T08:39:37;2.83;;;1.23;;
3549;SDS011;45572;48.804;8.330;2023-09-18T08:42:05;6.13;;;1.80;;
3549;SDS011;45572;48.804;8.330;2023-09-18T08:44:36;5.17;;;1.43;;
3549;SDS011;45572;48.804;8.330;2023-09-18T08:47:07;8.23;;;1.40;;
3549;SDS011;45572;48.804;8.330;2023-09-18T08:49:38;6.10;;;1.60;;
3549;SDS011;45572;48.804;8.330;2023-09-18T08:52:06;6.50;;;1.07;;
3549;SDS011;45572;48.804;8.330;2023-09-18T08:54:36;2.30;;;1.23;;
3549;SDS011;45572;48.804;8.330;2023-09-18T08:57:03;5.80;;;1.80;;
3549;SDS011;45572;48.804;8.330;2023-09-18T08:59:33;3.10;;;1.30;;
3549;SDS011;45572;48.804;8.330;2023-09-18T09:02:03;4.03;;;1.77;;
3549;SDS011;45572;48.804;8.330;2023-09-18T09:04:31;8.70;;;3.53;;
3549;SDS011;45572;48.804;8.330;2023-09-18T09:06:59;4.17;;;2.03;;
3549;SDS011;45572;48.804;8.330;2023-09-18T09:09:28;3.43;;;1.23;;
3549;SDS011;45572;48.804;8.330;2023-09-18T09:11:57;3.37;;;1.00;;
3549;SDS011;45572;48.804;8.330;2023-09-18T09:14:25;4.03;;;1.63;;
3549;SDS011;45572;48.804;8.330;2023-09-18T09:16:55;3.00;;;1.40;;
3549;SDS011;45572;48.804;8.330;2023-09-18T09:19:28;2.30;;;1.20;;
3549;SDS011;45572;48.804;8.330;2023-09-18T09:21:57;5.43;;;1.37;;
3549;SDS011;45572;48.804;8.330;2023-09-18T09:27:11;3.10;;;1.57;;
3549;SDS011;45572;48.804;8.330;2023-09-18T09:29:41;1.30;;;0.97;;
3549;SDS011;45572;48.804;8.330;2023-09-18T09:32:13;3.53;;;1.23;;
3549;SDS011;45572;48.804;8.330;2023-09-18T09:34:42;2.77;;;1.50;;
3549;SDS011;45572;48.804;8.330;2023-09-18T09:37:11;2.17;;;1.17;;
3549;SDS011;45572;48.804;8.330;2023-09-18T09:39:49;4.30;;;1.40;;
3549;SDS011;45572;48.804;8.330;2023-09-18T09:42:18;5.43;;;1.27;;
3549;SDS011;45572;48.804;8.330;2023-09-18T09:45:00;2.60;;;1.23;;
3549;SDS011;45572;48.804;8.330;2023-09-18T09:47:33;1.80;;;1.20;;
3549;SDS011;45572;48.804;8.330;2023-09-18T09:50:05;5.47;;;1.37;;
3549;SDS011;45572;48.804;8.330;2023-09-18T09:52:39;2.97;;;1.70;;
3549;SDS011;45572;48.804;8.330;2023-09-18T09:55:23;3.77;;;0.90;;
3549;SDS011;45572;48.804;8.330;2023-09-18T09:57:53;1.93;;;1.50;;
3549;SDS011;45572;48.804;8.330;2023-09-18T10:00:23;3.57;;;1.40;;
3549;SDS011;45572;48.804;8.330;2023-09-18T10:02:57;4.30;;;1.10;;
3549;SDS011;45572;48.804;8.330;2023-09-18T10:05:29;4.67;;;1.73;;
3549;SDS011;45572;48.804;8.330;2023-09-18T10:07:59;2.97;;;1.30;;
3549;SDS011;45572;48.804;8.330;2023-09-18T10:10:33;3.00;;;1.20;;
3549;SDS011;45572;48.804;8.330;2023-09-18T10:13:07;1.93;;;1.30;;
3549;SDS011;45572;48.804;8.330;2023-09-18T10:15:37;2.90;;;1.17;;
3549;SDS011;45572;48.804;8.330;2023-09-18T10:18:13;5.00;;;1.90;;
3549;SDS011;45572;48.804;8.330;2023-09-18T10:20:50;3.20;;;1.20;;
3549;SDS011;45572;48.804;8.330;2023-09-18T10:23:30;1.87;;;0.90;;
3549;SDS011;45572;48.804;8.330;2023-09-18T10:26:08;9.87;;;1.70;;
3549;SDS011;45572;48.804;8.330;2023-09-18T10:28:38;3.23;;;1.67;;
3549;SDS011;45572;48.804;8.330;2023-09-18T10:31:07;7.10;;;1.60;;
3549;SDS011;45572;48.804;8.330;2023-09-18T10:33:41;8.47;;;1.10;;
3549;SDS011;45572;48.804;8.330;2023-09-18T10:36:11;2.83;;;1.07;;
3549;SDS011;45572;48.804;8.330;2023-09-18T10:38:40;3.50;;;1.40;;
3549;SDS011;45572;48.804;8.330;2023-09-18T10:41:11;2.20;;;1.30;;
3549;SDS011;45572;48.804;8.330;2023-09-18T10:43:39;1.70;;;1.20;;
3549;SDS011;45572;48.804;8.330;2023-09-18T10:46:07;5.63;;;1.20;;
3549;SDS011;45572;48.804;8.330;2023-09-18T10:48:35;4.27;;;1.10;;
3549;SDS011;45572;48.804;8.330;2023-09-18T10:51:10;1.40;;;1.10;;
3549;SDS011;45572;48.804;8.330;2023-09-18T10:53:40;2.40;;;1.03;;
3549;SDS011;45572;48.804;8.330;2023-09-18T10:56:08;3.80;;;1.40;;
3549;SDS011;45572;48.804;8.330;2023-09-18T10:58:37;8.37;;;1.10;;
3549;SDS011;45572;48.804;8.330;2023-09-18T11:01:05;2.57;;;0.93;;
3549;SDS011;45572;48.804;8.330;2023-09-18T11:03:33;3.60;;;1.37;;
3549;SDS011;45572;48.804;8.330;2023-09-18T11:06:02;1.87;;;1.00;;
3549;SDS011;45572;48.804;8.330;2023-09-18T11:08:32;4.67;;;1.00;;
3549;SDS011;45572;48.804;8.330;2023-09-18T11:11:02;4.30;;;0.83;;
3549;SDS011;45572;48.804;8.330;2023-09-18T11:13:48;1.97;;;1.00;;
3549;SDS011;45572;48.804;8.330;2023-09-18T11:16:33;1.63;;;0.60;;
3549;SDS011;45572;48.804;8.330;2023-09-18T11:19:05;3.20;;;0.80;;
3549;SDS011;45572;48.804;8.330;2023-09-18T11:21:37;2.17;;;1.03;;
3549;SDS011;45572;48.804;8.330;2023-09-18T11:24:05;1.50;;;0.80;;
3549;SDS011;45572;48.804;8.330;2023-09-18T11:26:39;2.40;;;1.07;;
3549;SDS011;45572;48.804;8.330;2023-09-18T11:29:10;2.07;;;0.70;;
3549;SDS011;45572;48.804;8.330;2023-09-18T11:31:41;3.30;;;1.20;;
3549;SDS011;45572;48.804;8.330;2023-09-18T11:34:12;2.10;;;0.73;;
3549;SDS011;45572;48.804;8.330;2023-09-18T11:36:41;4.00;;;0.90;;
3549;SDS011;45572;48.804;8.330;2023-09-18T11:39:09;2.30;;;1.13;;
3549;SDS011;45572;48.804;8.330;2023-09-18T11:41:39;4.23;;;0.93;;
3549;SDS011;45572;48.804;8.330;2023-09-18T11:47:10;2.70;;;1.00;;
3549;SDS011;45572;48.804;8.330;2023-09-18T11:49:45;1.70;;;0.63;;
3549;SDS011;45572;48.804;8.330;2023-09-18T11:52:19;2.10;;;0.73;;
3549;SDS011;45572;48.804;8.330;2023-09-18T11:54:48;2.50;;;1.00;;
3549;SDS011;45572;48.804;8.330;2023-09-18T11:57:17;2.70;;;1.00;;
3549;SDS011;45572;48.804;8.330;2023-09-18T11:59:46;3.83;;;1.00;;
3549;SDS011;45572;48.804;8.330;2023-09-18T12:02:17;3.37;;;1.83;;
3549;SDS011;45572;48.804;8.330;2023-09-18T12:04:54;2.67;;;1.17;;
3549;SDS011;45572;48.804;8.330;2023-09-18T12:07:22;5.30;;;0.97;;
3549;SDS011;45572;48.804;8.330;2023-09-18T12:09:50;1.43;;;0.70;;
3549;SDS011;45572;48.804;8.330;2023-09-18T12:12:21;1.43;;;0.70;;
3549;SDS011;45572;48.804;8.330;2023-09-18T12:14:50;3.47;;;1.20;;
3549;SDS011;45572;48.804;8.330;2023-09-18T12:17:22;3.50;;;0.90;;
3549;SDS011;45572;48.804;8.330;2023-09-18T12:19:50;3.67;;;1.00;;
3549;SDS011;45572;48.804;8.330;2023-09-18T12:22:23;2.40;;;0.90;;
3549;SDS011;45572;48.804;8.330;2023-09-18T12:24:52;2.37;;;0.90;;
3549;SDS011;45572;48.804;8.330;2023-09-18T12:27:20;5.00;;;1.20;;
3549;SDS011;45572;48.804;8.330;2023-09-18T12:29:53;3.50;;;1.53;;
3549;SDS011;45572;48.804;8.330;2023-09-18T12:32:24;2.00;;;1.03;;
3549;SDS011;45572;48.804;8.330;2023-09-18T12:34:51;3.30;;;1.20;;
3549;SDS011;45572;48.804;8.330;2023-09-18T12:37:21;3.00;;;1.03;;
3549;SDS011;45572;48.804;8.330;2023-09-18T12:39:50;2.50;;;1.30;;
3549;SDS011;45572;48.804;8.330;2023-09-18T12:42:19;2.13;;;1.00;;
3549;SDS011;45572;48.804;8.330;2023-09-18T12:44:47;4.30;;;0.90;;
3549;SDS011;45572;48.804;8.330;2023-09-18T12:47:16;1.93;;;0.83;;
3549;SDS011;45572;48.804;8.330;2023-09-18T12:49:46;2.10;;;1.13;;
3549;SDS011;45572;48.804;8.330;2023-09-18T12:52:21;3.33;;;1.00;;
3549;SDS011;45572;48.804;8.330;2023-09-18T12:54:50;1.77;;;1.00;;
3549;SDS011;45572;48.804;8.330;2023-09-18T12:57:20;3.93;;;1.23;;
3549;SDS011;45572;48.804;8.330;2023-09-18T12:59:49;4.70;;;1.00;;
3549;SDS011;45572;48.804;8.330;2023-09-18T13:02:19;2.10;;;1.10;;
3549;SDS011;45572;48.804;8.330;2023-09-18T13:04:56;1.63;;;0.73;;
3549;SDS011;45572;48.804;8.330;2023-09-18T13:07:25;3.97;;;1.10;;
3549;SDS011;45572;48.804;8.330;2023-09-18T13:09:58;1.63;;;0.87;;
3549;SDS011;45572;48.804;8.330;2023-09-18T13:12:38;3.63;;;1.30;;
3549;SDS011;45572;48.804;8.330;2023-09-18T13:15:08;4.57;;;1.87;;
3549;SDS011;45572;48.804;8.330;2023-09-18T13:17:40;2.60;;;0.90;;
3549;SDS011;45572;48.804;8.330;2023-09-18T13:20:14;3.00;;;1.23;;
3549;SDS011;45572;48.804;8.330;2023-09-18T13:22:47;3.83;;;1.00;;
3549;SDS011;45572;48.804;8.330;2023-09-18T13:25:18;6.30;;;0.83;;
3549;SDS011;45572;48.804;8.330;2023-09-18T13:27:48;4.27;;;1.20;;
3549;SDS011;45572;48.804;8.330;2023-09-18T13:30:16;2.17;;;1.10;;
3549;SDS011;45572;48.804;8.330;2023-09-18T13:32:47;2.50;;;0.90;;
3549;SDS011;45572;48.804;8.330;2023-09-18T13:35:20;1.87;;;0.90;;
3549;SDS011;45572;48.804;8.330;2023-09-18T13:37:48;1.73;;;0.80;;
3549;SDS011;45572;48.804;8.330;2023-09-18T13:40:17;1.50;;;0.90;;
3549;SDS011;45572;48.804;8.330;2023-09-18T13:42:48;3.40;;;0.80;;
3549;SDS011;45572;48.804;8.330;2023-09-18T13:45:16;1.97;;;1.10;;
3549;SDS011;45572;48.804;8.330;2023-09-18T13:47:45;2.50;;;0.87;;
3549;SDS011;45572;48.804;8.330;2023-09-18T13:50:14;3.73;;;1.00;;
3549;SDS011;45572;48.804;8.330;2023-09-18T13:52:44;2.60;;;0.80;;
3549;SDS011;45572;48.804;8.330;2023-09-18T13:55:13;5.30;;;1.00;;
3549;SDS011;45572;48.804;8.330;2023-09-18T13:57:43;2.40;;;1.03;;
3549;SDS011;45572;48.804;8.330;2023-09-18T14:00:11;3.30;;;1.30;;
3549;SDS011;45572;48.804;8.330;2023-09-18T14:02:40;2.40;;;1.17;;
3549;SDS011;45572;48.804;8.330;2023-09-18T14:05:09;2.07;;;0.80;;
3549;SDS011;45572;48.804;8.330;2023-09-18T14:07:45;3.03;;;1.10;;
3549;SDS011;45572;48.804;8.330;2023-09-18T14:10:14;1.87;;;0.97;;
3549;SDS011;45572;48.804;8.330;2023-09-18T14:12:46;2.13;;;0.80;;
3549;SDS011;45572;48.804;8.330;2023-09-18T14:15:15;3.40;;;0.87;;
3549;SDS011;45572;48.804;8.330;2023-09-18T14:17:45;6.10;;;1.53;;
3549;SDS011;45572;48.804;8.330;2023-09-18T14:20:14;3.80;;;1.10;;
3549;SDS011;45572;48.804;8.330;2023-09-18T14:22:47;6.10;;;1.70;;
3549;SDS011;45572;48.804;8.330;2023-09-18T14:25:16;3.90;;;1.10;;
3549;SDS011;45572;48.804;8.330;2023-09-18T14:27:46;2.40;;;0.80;;
3549;SDS011;45572;48.804;8.330;2023-09-18T14:30:14;3.13;;;1.27;;
3549;SDS011;45572;48.804;8.330;2023-09-18T14:32:42;2.00;;;1.20;;
3549;SDS011;45572;48.804;8.330;2023-09-18T14:35:10;3.03;;;1.60;;
3549;SDS011;45572;48.804;8.330;2023-09-18T14:37:40;1.83;;;0.87;;
3549;SDS011;45572;48.804;8.330;2023-09-18T14:40:09;2.43;;;0.80;;
3549;SDS011;45572;48.804;8.330;2023-09-18T14:42:37;1.70;;;0.70;;
3549;SDS011;45572;48.804;8.330;2023-09-18T14:45:05;6.17;;;1.50;;
3549;SDS011;45572;48.804;8.330;2023-09-18T14:47:34;3.43;;;1.43;;
3549;SDS011;45572;48.804;8.330;2023-09-18T14:50:02;2.00;;;0.83;;
3549;SDS011;45572;48.804;8.330;2023-09-18T14:52:31;4.00;;;1.50;;
3549;SDS011;45572;48.804;8.330;2023-09-18T14:54:59;2.00;;;1.43;;
3549;SDS011;45572;48.804;8.330;2023-09-18T14:57:29;3.90;;;1.30;;
3549;SDS011;45572;48.804;8.330;2023-09-18T14:59:57;1.50;;;0.90;;
3549;SDS011;45572;48.804;8.330;2023-09-18T15:02:25;2.00;;;0.80;;
3549;SDS011;45572;48.804;8.330;2023-09-18T15:04:56;1.73;;;0.70;;
3549;SDS011;45572;48.804;8.330;2023-09-18T15:07:25;2.77;;;0.93;;
3549;SDS011;45572;48.804;8.330;2023-09-18T15:09:58;4.00;;;1.10;;
3549;SDS011;45572;48.804;8.330;2023-09-18T15:12:30;4.73;;;1.00;;
3549;SDS011;45572;48.804;8.330;2023-09-18T15:14:58;3.00;;;1.23;;
3549;SDS011;45572;48.804;8.330;2023-09-18T15:17:29;1.90;;;0.70;;
3549;SDS011;45572;48.804;8.330;2023-09-18T15:19:59;3.20;;;1.00;;
3549;SDS011;45572;48.804;8.330;2023-09-18T15:22:28;2.63;;;1.10;;
3549;SDS011;45572;48.804;8.330;2023-09-18T15:24:56;2.70;;;1.20;;